Time;durP1;ratioP1;P1;durP2;ratioP2;P2;SDS_P1;SDS_P2;PMS_P1;PMS_P2;Temp;Humidity;BMP_temperature;BMP_pressure;BME280_temperature;BME280_humidity;BME280_pressure;Samples;Min_cycle;Max_cycle;Signal;HPM_P1;HPM_P2
2021/04/21 00:02:35;;;;;;;18.57;12.00;;;;;;;8.94;56.65;99723.05;147711;1147;104532;-82
2021/04/21 00:05:40;;;;;;;16.55;11.93;;;;;;;8.93;56.63;99724.02;147565;1147;104569;-78
2021/04/21 00:08:43;;;;;;;17.17;12.55;;;;;;;8.88;56.79;99713.86;147708;1147;104482;-81
2021/04/21 00:11:48;;;;;;;19.52;13.00;;;;;;;8.81;57.07;99720.78;147448;1147;104678;-79
2021/04/21 00:14:53;;;;;;;19.27;12.90;;;;;;;8.77;57.30;99706.95;147796;1146;104632;-79
2021/04/21 00:18:02;;;;;;;18.17;12.65;;;;;;;8.74;56.79;99701.13;147809;1148;104488;-79
2021/04/21 00:21:07;;;;;;;18.52;12.98;;;;;;;8.71;57.26;99712.89;147602;1147;104504;-81
2021/04/21 00:24:12;;;;;;;18.48;11.70;;;;;;;8.72;57.42;99714.58;147744;1146;104589;-79
2021/04/21 00:27:17;;;;;;;18.92;12.15;;;;;;;8.78;57.51;99705.97;147467;1147;104528;-79
2021/04/21 00:30:25;;;;;;;23.45;14.63;;;;;;;8.80;57.30;99703.16;147588;1148;104524;-81
2021/04/21 00:33:30;;;;;;;20.53;14.73;;;;;;;8.78;57.25;99703.31;147793;1146;104405;-79
2021/04/21 00:36:36;;;;;;;22.40;15.30;;;;;;;8.72;57.91;99698.63;147747;1147;104578;-82
2021/04/21 00:39:42;;;;;;;22.82;16.00;;;;;;;8.77;57.71;99703.46;147756;1147;104591;-80
2021/04/21 00:42:54;;;;;;;27.98;17.00;;;;;;;8.77;57.69;99712.27;147777;1147;104575;-79
2021/04/21 00:46:07;;;;;;;22.63;15.87;;;;;;;8.76;57.78;99699.15;147655;1147;104457;-81
2021/04/21 00:49:15;;;;;;;21.27;14.67;;;;;;;8.75;57.47;99702.78;147581;1147;104916;-83
2021/04/21 00:52:26;;;;;;;19.57;13.97;;;;;;;8.75;57.43;99700.95;147620;1147;104930;-81
2021/04/21 00:55:37;;;;;;;19.05;13.78;;;;;;;8.75;57.42;99697.47;147560;1147;104471;-82
2021/04/21 00:58:52;;;;;;;19.30;13.93;;;;;;;8.71;57.41;99701.43;147615;1147;104572;-80
2021/04/21 01:01:58;;;;;;;20.13;14.47;;;;;;;8.69;58.00;99703.41;147765;1147;104521;-78
2021/04/21 01:05:09;;;;;;;21.37;14.80;;;;;;;8.64;57.83;99696.73;147839;1148;104445;-79
2021/04/21 01:08:16;;;;;;;20.25;14.50;;;;;;;8.61;58.34;99702.34;147796;1148;104580;-78
2021/04/21 01:11:25;;;;;;;23.32;14.90;;;;;;;8.59;58.25;99693.69;147785;1147;104947;-77
2021/04/21 01:14:34;;;;;;;21.97;15.17;;;;;;;8.56;58.56;99687.84;147448;1146;104529;-76
2021/04/21 01:17:41;;;;;;;23.40;15.98;;;;;;;8.54;57.73;99693.30;147789;1147;104517;-78
2021/04/21 01:20:55;;;;;;;20.52;15.03;;;;;;;8.50;58.28;99688.46;147761;1147;104545;-78
2021/04/21 01:24:15;;;;;;;19.70;13.72;;;;;;;8.47;58.04;99689.61;147729;1148;104569;-78
2021/04/21 01:27:21;;;;;;;22.00;14.15;;;;;;;8.50;58.76;99678.66;147746;1148;104572;-78
2021/04/21 01:30:25;;;;;;;21.53;13.80;;;;;;;8.54;57.95;99682.67;147807;1147;104505;-78
2021/04/21 01:33:30;;;;;;;20.23;13.90;;;;;;;8.58;58.78;99678.74;147262;1147;104620;-77
2021/04/21 01:36:35;;;;;;;21.12;14.95;;;;;;;8.60;57.96;99681.22;147693;1147;104572;-79
2021/04/21 01:39:43;;;;;;;20.48;14.75;;;;;;;8.62;58.51;99673.92;147706;1146;104476;-79
2021/04/21 01:42:52;;;;;;;19.50;14.58;;;;;;;8.62;58.78;99677.44;147752;1147;104564;-82
2021/04/21 01:45:59;;;;;;;23.45;16.37;;;;;;;8.63;58.79;99676.43;147863;1147;104503;-80
2021/04/21 01:49:10;;;;;;;20.27;14.65;;;;;;;8.61;58.89;99672.27;147496;1147;104730;-80
2021/04/21 01:52:26;;;;;;;21.23;14.58;;;;;;;8.58;58.18;99667.25;147655;1147;104569;-79
2021/04/21 01:55:51;;;;;;;21.75;15.13;;;;;;;8.56;58.88;99664.73;147829;1147;104554;-78
2021/04/21 01:59:04;;;;;;;20.10;13.78;;;;;;;8.54;58.70;99665.89;147776;1148;104489;-81
2021/04/21 02:02:15;;;;;;;21.77;14.57;;;;;;;8.52;58.63;99665.21;147798;1147;104572;-81
2021/04/21 02:05:29;;;;;;;20.00;14.55;;;;;;;8.48;59.26;99669.17;147743;1147;104569;-79
2021/04/21 02:08:49;;;;;;;24.05;15.38;;;;;;;8.45;59.12;99657.03;147756;1148;104531;-79
2021/04/21 02:12:02;;;;;;;22.82;14.13;;;;;;;8.42;59.00;99666.13;147784;1147;104576;-79
2021/04/21 02:15:14;;;;;;;23.97;15.60;;;;;;;8.44;59.24;99655.34;147579;1147;104569;-80
2021/04/21 02:18:27;;;;;;;22.65;15.08;;;;;;;8.41;58.91;99651.18;147734;1147;104510;-77
2021/04/21 02:21:37;;;;;;;22.07;14.83;;;;;;;8.39;59.76;99647.81;147721;1147;104524;-77
2021/04/21 02:24:50;;;;;;;20.80;14.45;;;;;;;8.34;59.07;99651.92;147762;1147;104559;-79
2021/04/21 02:28:02;;;;;;;27.90;15.87;;;;;;;8.31;59.18;99654.88;147737;1147;104580;-77
2021/04/21 02:31:13;;;;;;;24.82;16.12;;;;;;;8.32;59.58;99660.04;147724;1147;104690;-76
2021/04/21 02:34:26;;;;;;;28.70;18.50;;;;;;;8.35;59.58;99659.75;147799;1147;104949;-78
2021/04/21 02:37:35;;;;;;;29.63;19.77;;;;;;;8.40;59.32;99657.44;147666;1147;104681;-78
2021/04/21 02:40:50;;;;;;;28.23;18.40;;;;;;;8.44;58.85;99652.69;147327;1147;104569;-78
2021/04/21 02:44:07;;;;;;;26.43;17.87;;;;;;;8.46;59.49;99645.39;147684;1147;104591;-77
2021/04/21 02:47:18;;;;;;;24.82;17.12;;;;;;;8.47;60.38;99644.41;147730;1147;104566;-78
2021/04/21 02:50:27;;;;;;;24.77;17.47;;;;;;;8.45;59.46;99646.39;147738;1148;104579;-75
2021/04/21 02:53:45;;;;;;;25.12;18.02;;;;;;;8.43;59.77;99654.52;147786;1147;104521;-77
2021/04/21 02:56:57;;;;;;;30.72;20.88;;;;;;;8.42;60.00;99649.35;147821;1147;104569;-79
2021/04/21 03:00:08;;;;;;;29.67;20.57;;;;;;;8.29;60.06;99656.84;147786;1147;104457;-79
2021/04/21 03:03:21;;;;;;;27.93;19.17;;;;;;;8.20;59.75;99654.12;147778;1147;104564;-75
2021/04/21 03:06:28;;;;;;;27.67;19.83;;;;;;;8.19;60.59;99651.62;147812;1147;104468;-76
2021/04/21 03:09:38;;;;;;;27.25;19.40;;;;;;;8.16;59.44;99652.77;147733;1147;104908;-75
2021/04/21 03:12:47;;;;;;;28.05;18.32;;;;;;;8.11;59.67;99660.34;147921;1147;104481;-75
2021/04/21 03:15:56;;;;;;;26.05;18.07;;;;;;;8.08;60.25;99657.98;147846;1147;104518;-75
2021/04/21 03:19:03;;;;;;;26.57;16.47;;;;;;;8.06;59.72;99659.95;147799;1147;104473;-74
2021/04/21 03:22:14;;;;;;;23.50;17.02;;;;;;;8.03;60.02;99674.39;147861;1147;104561;-75
2021/04/21 03:25:21;;;;;;;26.02;17.23;;;;;;;8.07;60.26;99672.27;148011;1147;105036;-77
2021/04/21 03:28:27;;;;;;;28.80;17.92;;;;;;;8.04;59.43;99675.22;147767;1147;104578;-75
2021/04/21 03:31:35;;;;;;;25.80;17.70;;;;;;;8.07;59.95;99677.59;147688;1147;104566;-76
2021/04/21 03:34:40;;;;;;;26.10;16.60;;;;;;;8.03;59.47;99678.88;147355;1148;104512;-77
2021/04/21 03:37:52;;;;;;;22.90;15.93;;;;;;;7.97;60.42;99682.97;147695;1147;104474;-75
2021/04/21 03:40:56;;;;;;;26.17;17.23;;;;;;;7.93;59.74;99686.92;147776;1147;104598;-77
2021/04/21 03:44:00;;;;;;;33.08;22.45;;;;;;;7.89;60.81;99690.00;147760;1146;104578;-77
2021/04/21 03:47:04;;;;;;;31.77;21.07;;;;;;;7.82;60.38;99685.30;147782;1147;105189;-76
2021/04/21 03:50:11;;;;;;;28.80;19.35;;;;;;;7.81;59.63;99683.64;147963;1147;104450;-76
2021/04/21 03:53:17;;;;;;;26.68;18.45;;;;;;;7.76;60.96;99688.55;147863;1147;104464;-75
2021/04/21 03:56:25;;;;;;;24.72;18.37;;;;;;;7.73;60.08;99688.02;147784;1147;104668;-78
2021/04/21 03:59:32;;;;;;;27.48;19.23;;;;;;;7.67;60.68;99687.61;147719;1147;104464;-76
2021/04/21 04:02:39;;;;;;;25.12;18.75;;;;;;;7.68;60.79;99688.47;147757;1147;104572;-77
2021/04/21 04:05:46;;;;;;;27.30;20.52;;;;;;;7.70;60.90;99678.53;147643;1147;104575;-75
2021/04/21 04:08:51;;;;;;;28.73;19.97;;;;;;;7.74;60.58;99679.91;147571;1147;104566;-76
2021/04/21 04:11:59;;;;;;;27.60;20.00;;;;;;;7.74;60.55;99668.45;147752;1146;104623;-76
2021/04/21 04:15:03;;;;;;;28.50;19.07;;;;;;;7.77;60.61;99665.48;147622;1147;104815;-73
2021/04/21 04:18:14;;;;;;;27.85;18.60;;;;;;;7.88;60.13;99664.44;147750;1147;104519;-74
2021/04/21 04:21:19;;;;;;;34.20;21.30;;;;;;;7.98;61.42;99652.75;147635;1147;104483;-78
2021/04/21 04:24:25;;;;;;;26.93;19.60;;;;;;;8.11;61.15;99654.20;147629;1148;105503;-76
2021/04/21 04:27:30;;;;;;;30.43;21.82;;;;;;;8.24;60.80;99646.69;147781;1145;104603;-72
2021/04/21 04:30:33;;;;;;;33.33;22.98;;;;;;;8.39;61.30;99658.45;147669;1147;104585;-71
2021/04/21 04:33:41;;;;;;;31.07;22.63;;;;;;;8.53;61.33;99664.23;147652;1148;104575;-70
2021/04/21 04:36:45;;;;;;;37.25;24.47;;;;;;;8.63;61.75;99668.45;147729;1147;104479;-73
2021/04/21 04:39:49;;;;;;;36.68;25.30;;;;;;;8.75;62.13;99662.88;147763;1147;104849;-74
2021/04/21 04:42:53;;;;;;;37.13;25.00;;;;;;;8.83;61.61;99684.22;147811;1147;104537;-74
2021/04/21 04:46:02;;;;;;;34.18;24.72;;;;;;;8.84;61.67;99665.44;147804;1148;104482;-75
2021/04/21 04:49:09;;;;;;;32.83;21.97;;;;;;;8.92;61.78;99671.81;147802;1147;104556;-72
2021/04/21 04:52:13;;;;;;;31.02;20.62;;;;;;;9.03;62.17;99663.57;147813;1147;104439;-74
2021/04/21 04:55:19;;;;;;;30.65;22.00;;;;;;;9.18;62.01;99671.78;147753;1147;104447;-75
2021/04/21 04:58:23;;;;;;;30.77;22.37;;;;;;;9.29;62.30;99668.84;147796;1147;104546;-74
2021/04/21 05:01:26;;;;;;;29.77;21.95;;;;;;;9.37;61.93;99670.71;147658;1147;104563;-73
2021/04/21 05:04:36;;;;;;;29.90;21.05;;;;;;;9.47;61.84;99675.91;147487;1146;104457;-73
2021/04/21 05:07:43;;;;;;;32.30;22.45;;;;;;;9.54;62.21;99687.59;147680;1147;104567;-73
2021/04/21 05:10:57;;;;;;;34.03;23.98;;;;;;;9.48;63.12;99697.06;147820;1145;104476;-74
2021/04/21 05:14:05;;;;;;;27.80;21.60;;;;;;;9.41;62.95;99688.89;147715;1147;104661;-74
2021/04/21 05:17:52;;;;;;;30.60;21.73;;;;;;;9.43;62.51;99686.08;147619;1147;104535;-74
2021/04/21 05:21:20;;;;;;;30.20;22.15;;;;;;;9.53;62.89;99672.63;147770;1147;104474;-73
2021/04/21 05:25:01;;;;;;;30.17;20.32;;;;;;;9.57;62.47;99674.80;147816;1147;104485;-73
2021/04/21 05:28:45;;;;;;;25.62;17.82;;;;;;;9.69;63.15;99675.33;147363;1147;104480;-73
2021/04/21 05:32:19;;;;;;;22.90;17.80;;;;;;;9.83;63.05;99666.73;146872;1148;104629;-72
2021/04/21 05:36:10;;;;;;;27.32;19.98;;;;;;;9.99;62.76;99670.43;147579;1147;104505;-73
2021/04/21 05:39:50;;;;;;;26.93;18.60;;;;;;;10.15;62.41;99666.95;147587;1147;104473;-74
2021/04/21 05:43:35;;;;;;;29.05;19.50;;;;;;;10.25;62.33;99672.13;147780;1147;104553;-74
2021/04/21 05:47:15;;;;;;;26.85;18.52;;;;;;;10.36;62.06;99669.17;147792;1147;104476;-73
2021/04/21 05:51:06;;;;;;;25.20;18.65;;;;;;;10.48;62.49;99665.16;147801;1147;104840;-73
2021/04/21 05:54:41;;;;;;;25.77;18.17;;;;;;;10.66;62.70;99664.97;147644;1147;104894;-74
2021/04/21 05:58:41;;;;;;;26.87;19.70;;;;;;;10.82;62.25;99666.81;147511;1148;104476;-73
2021/04/21 06:01:47;;;;;;;26.75;20.00;;;;;;;10.97;62.74;99669.59;147665;1147;104425;-73
2021/04/21 06:05:05;;;;;;;25.10;18.65;;;;;;;11.09;62.12;99673.59;147781;1148;104452;-73
2021/04/21 06:08:12;;;;;;;25.83;19.57;;;;;;;11.21;61.91;99671.39;147786;1146;104658;-72
2021/04/21 06:11:25;;;;;;;56.20;49.67;;;;;;;11.25;62.47;99672.70;147574;1147;104614;-73
2021/04/21 06:14:28;;;;;;;29.95;21.57;;;;;;;11.37;62.07;99668.67;147261;1147;104569;-73
2021/04/21 06:17:32;;;;;;;32.42;20.90;;;;;;;11.62;61.99;99662.38;147598;1147;104600;-74
2021/04/21 06:20:37;;;;;;;26.10;19.10;;;;;;;11.91;61.37;99675.97;147778;1147;104568;-74
2021/04/21 06:23:41;;;;;;;26.68;18.87;;;;;;;12.08;61.51;99663.31;147736;1147;104653;-74
2021/04/21 06:26:44;;;;;;;23.15;16.97;;;;;;;12.21;61.34;99669.93;147716;1148;104494;-74
2021/04/21 06:29:47;;;;;;;23.70;18.92;;;;;;;12.41;61.14;99668.42;147717;1147;104562;-73
2021/04/21 06:33:00;;;;;;;22.15;17.42;;;;;;;12.52;61.03;99664.50;147679;1148;104470;-73
2021/04/21 06:36:06;;;;;;;22.43;17.50;;;;;;;12.64;60.77;99672.92;147485;1147;104574;-75
2021/04/21 06:39:10;;;;;;;23.32;16.90;;;;;;;12.82;60.77;99665.41;147752;1147;104541;-72
2021/04/21 06:42:19;;;;;;;24.12;18.30;;;;;;;12.93;60.60;99664.97;147771;1146;104473;-74
2021/04/21 06:45:27;;;;;;;22.50;18.37;;;;;;;12.94;60.61;99669.28;147802;1145;104565;-74
2021/04/21 06:48:33;;;;;;;32.80;21.80;;;;;;;12.98;60.43;99674.29;147383;1147;104523;-73
2021/04/21 06:51:36;;;;;;;25.25;18.85;;;;;;;12.95;60.05;99670.11;147668;1147;104553;-72
2021/04/21 06:54:40;;;;;;;25.07;18.60;;;;;;;12.98;60.40;99671.61;147730;1148;104569;-73
2021/04/21 06:57:44;;;;;;;26.05;19.15;;;;;;;13.06;60.01;99660.81;147660;1147;104433;-73
2021/04/21 07:00:47;;;;;;;22.40;17.62;;;;;;;13.11;60.47;99666.45;147722;1147;104514;-73
2021/04/21 07:03:50;;;;;;;27.33;18.47;;;;;;;13.18;60.38;99662.00;147776;1147;104479;-74
2021/04/21 07:06:55;;;;;;;31.77;23.90;;;;;;;13.19;60.21;99666.36;147758;1147;104582;-73
2021/04/21 07:09:58;;;;;;;25.02;19.65;;;;;;;13.22;60.12;99666.00;147780;1146;104482;-74
2021/04/21 07:13:03;;;;;;;26.77;19.57;;;;;;;13.22;59.65;99666.00;147796;1147;104809;-74
2021/04/21 07:16:10;;;;;;;25.50;19.60;;;;;;;13.18;60.63;99653.14;147759;1146;104492;-76
2021/04/21 07:19:14;;;;;;;24.25;18.85;;;;;;;13.16;59.82;99658.67;147750;1147;104805;-75
2021/04/21 07:22:18;;;;;;;24.80;18.00;;;;;;;13.13;59.93;99662.56;147785;1148;104464;-75
2021/04/21 07:25:22;;;;;;;22.73;17.57;;;;;;;13.12;59.68;99663.56;147732;1148;104652;-75
2021/04/21 07:28:26;;;;;;;31.82;21.07;;;;;;;13.22;59.58;99668.67;147657;1148;104439;-73
2021/04/21 07:31:35;;;;;;;25.35;17.15;;;;;;;13.42;60.30;99663.61;147421;1147;104477;-73
2021/04/21 07:34:38;;;;;;;21.73;18.10;;;;;;;13.55;59.36;99662.96;147631;1147;104486;-73
2021/04/21 07:37:43;;;;;;;22.00;17.83;;;;;;;13.61;59.43;99670.25;147773;1147;104494;-73
2021/04/21 07:40:51;;;;;;;20.57;17.30;;;;;;;13.58;59.65;99665.25;147739;1147;104950;-74
2021/04/21 07:43:54;;;;;;;24.70;18.00;;;;;;;13.60;59.29;99663.20;147765;1147;104560;-74
2021/04/21 07:47:14;;;;;;;21.60;16.12;;;;;;;13.64;59.34;99663.67;147737;1147;104573;-72
2021/04/21 07:50:27;;;;;;;23.60;17.02;;;;;;;13.67;59.58;99671.35;147622;1147;104496;-73
2021/04/21 07:53:30;;;;;;;23.73;17.27;;;;;;;13.66;58.95;99667.81;147762;1147;104531;-73
2021/04/21 07:56:35;;;;;;;21.87;15.53;;;;;;;13.67;59.15;99674.86;147767;1147;104534;-73
2021/04/21 07:59:42;;;;;;;20.08;16.00;;;;;;;13.72;59.35;99667.09;147852;1147;104569;-73
2021/04/21 08:02:45;;;;;;;24.77;18.65;;;;;;;13.80;59.44;99657.25;147721;1147;104509;-73
2021/04/21 08:05:52;;;;;;;20.92;15.13;;;;;;;13.86;58.23;99667.25;147733;1147;104479;-75
2021/04/21 08:08:57;;;;;;;20.70;14.27;;;;;;;13.86;58.35;99661.88;147784;1147;104478;-74
2021/04/21 08:12:12;;;;;;;21.12;15.90;;;;;;;13.94;57.80;99661.76;147632;1147;104556;-72
2021/04/21 08:15:17;;;;;;;17.87;13.75;;;;;;;14.05;58.12;99671.14;147767;1147;104451;-76
2021/04/21 08:18:20;;;;;;;17.55;14.00;;;;;;;14.11;56.71;99665.86;147439;1147;104485;-73
2021/04/21 08:21:36;;;;;;;16.03;12.17;;;;;;;14.34;56.84;99665.68;147700;1147;104448;-73
2021/04/21 08:24:44;;;;;;;15.80;11.15;;;;;;;14.47;56.33;99664.98;147774;1147;104450;-73
2021/04/21 08:27:47;;;;;;;15.20;11.37;;;;;;;14.69;53.86;99664.98;147788;1147;104617;-74
2021/04/21 08:30:56;;;;;;;16.83;12.10;;;;;;;14.90;55.79;99664.93;147784;1148;104588;-73
2021/04/21 08:34:00;;;;;;;16.70;10.93;;;;;;;15.09;56.50;99662.59;147764;1148;104548;-74
2021/04/21 08:37:04;;;;;;;16.23;11.15;;;;;;;15.25;55.62;99669.50;147765;1147;104480;-75
2021/04/21 08:40:12;;;;;;;15.38;11.20;;;;;;;15.29;55.21;99663.52;147730;1147;104407;-75
2021/04/21 08:43:16;;;;;;;14.13;10.63;;;;;;;15.44;55.53;99660.70;147767;1148;104605;-73
2021/04/21 08:46:20;;;;;;;14.60;9.70;;;;;;;15.57;51.53;99665.33;147830;1147;104530;-73
2021/04/21 08:49:24;;;;;;;13.15;8.58;;;;;;;15.60;53.35;99664.91;147788;1147;104453;-73
2021/04/21 08:52:32;;;;;;;11.75;8.13;;;;;;;15.68;51.32;99663.90;147652;1147;104542;-74
2021/04/21 08:55:37;;;;;;;9.93;7.05;;;;;;;15.57;51.23;99662.63;147741;1147;104478;-73
2021/04/21 08:58:40;;;;;;;11.07;6.67;;;;;;;15.51;52.77;99666.09;147738;1147;104477;-73
2021/04/21 09:01:46;;;;;;;11.80;6.80;;;;;;;15.61;51.95;99671.14;147788;1147;104594;-75
2021/04/21 09:04:53;;;;;;;11.57;7.55;;;;;;;15.43;48.74;99668.96;147810;1147;104504;-74
2021/04/21 09:07:57;;;;;;;9.38;6.90;;;;;;;15.22;47.81;99668.05;147813;1147;104582;-74
2021/04/21 09:11:00;;;;;;;10.98;6.80;;;;;;;15.15;51.08;99661.80;147777;1147;104444;-73
2021/04/21 09:14:04;;;;;;;12.33;6.90;;;;;;;14.98;49.15;99665.81;147774;1148;104562;-74
2021/04/21 09:17:07;;;;;;;9.50;6.08;;;;;;;14.95;51.18;99660.82;147743;1147;104538;-76
2021/04/21 09:20:15;;;;;;;9.75;5.92;;;;;;;15.06;50.19;99663.79;147704;1147;104576;-73
2021/04/21 09:23:20;;;;;;;10.05;6.15;;;;;;;15.04;45.65;99655.09;147718;1147;104574;-74
2021/04/21 09:26:24;;;;;;;9.90;6.10;;;;;;;15.00;49.78;99647.64;147704;1147;104534;-74
2021/04/21 09:29:32;;;;;;;10.20;6.25;;;;;;;14.99;50.45;99651.34;147720;1148;104742;-73
2021/04/21 09:32:44;;;;;;;8.07;5.83;;;;;;;14.95;50.44;99647.39;147787;1148;104620;-74
2021/04/21 09:35:48;;;;;;;12.58;6.00;;;;;;;15.07;50.93;99643.14;147805;1145;104488;-74
2021/04/21 09:38:53;;;;;;;10.30;7.00;;;;;;;15.17;50.96;99643.61;147640;1146;104579;-73
2021/04/21 09:42:02;;;;;;;11.10;7.47;;;;;;;15.18;49.68;99639.05;147721;1148;104680;-73
2021/04/21 09:45:07;;;;;;;10.32;6.70;;;;;;;15.18;50.63;99639.05;147769;1147;104627;-74
2021/04/21 09:48:14;;;;;;;14.98;9.90;;;;;;;15.26;47.92;99630.82;147342;1147;104629;-74
2021/04/21 09:51:20;;;;;;;11.57;7.40;;;;;;;15.39;49.75;99624.69;147832;1147;104565;-73
2021/04/21 09:54:36;;;;;;;11.00;6.70;;;;;;;15.46;49.60;99628.25;147756;1147;104478;-74
2021/04/21 09:57:40;;;;;;;10.43;6.95;;;;;;;15.49;48.62;99625.14;147737;1147;104467;-74
2021/04/21 10:00:43;;;;;;;15.77;8.67;;;;;;;15.46;49.93;99634.45;147716;1147;104604;-74
2021/04/21 10:03:47;;;;;;;11.28;7.80;;;;;;;15.34;50.15;99627.99;147759;1147;104507;-74
2021/04/21 10:06:51;;;;;;;11.95;7.45;;;;;;;15.28;49.59;99629.62;147840;1146;104892;-74
2021/04/21 10:09:58;;;;;;;10.93;7.97;;;;;;;15.31;48.34;99615.76;147777;1148;104579;-73
2021/04/21 10:13:13;;;;;;;10.93;7.03;;;;;;;15.48;49.03;99610.88;147723;1148;104562;-74
2021/04/21 10:16:17;;;;;;;16.73;7.25;;;;;;;15.80;48.54;99605.00;147831;1147;104623;-73
2021/04/21 10:19:21;;;;;;;10.47;6.90;;;;;;;16.07;48.28;99608.56;147747;1147;104521;-74
2021/04/21 10:22:24;;;;;;;9.50;6.50;;;;;;;16.23;47.57;99610.06;147536;1148;104578;-74
2021/04/21 10:25:27;;;;;;;8.05;6.35;;;;;;;16.10;47.30;99603.61;147743;1147;104543;-73
2021/04/21 10:28:31;;;;;;;8.98;6.50;;;;;;;16.03;46.42;99604.63;147773;1148;104489;-74
2021/04/21 10:31:35;;;;;;;8.05;6.03;;;;;;;15.99;47.99;99598.00;147757;1147;104379;-74
2021/04/21 10:34:39;;;;;;;9.57;6.10;;;;;;;15.99;46.12;99606.90;147777;1147;104564;-73
2021/04/21 10:37:43;;;;;;;11.73;6.50;;;;;;;15.91;46.70;99596.34;147796;1148;104468;-74
2021/04/21 10:40:46;;;;;;;11.77;6.57;;;;;;;15.92;45.82;99595.32;147757;1148;104587;-74
2021/04/21 10:43:50;;;;;;;7.73;5.57;;;;;;;15.97;46.79;99592.00;147733;1147;104576;-74
2021/04/21 10:47:11;;;;;;;9.03;6.05;;;;;;;16.00;46.42;99584.35;147602;1147;104550;-73
2021/04/21 10:50:15;;;;;;;9.28;6.20;;;;;;;16.16;44.71;99593.06;147565;1147;104484;-74
2021/04/21 10:53:44;;;;;;;7.47;5.53;;;;;;;16.27;45.72;99584.38;147490;1148;104492;-74
2021/04/21 10:56:48;;;;;;;8.90;6.20;;;;;;;16.43;45.42;99586.64;147645;1148;104564;-74
2021/04/21 11:00:25;;;;;;;9.23;5.87;;;;;;;16.50;43.80;99570.50;147801;1147;104486;-75
2021/04/21 11:03:44;;;;;;;10.80;6.03;;;;;;;16.64;45.33;99574.81;147719;1147;104629;-74
2021/04/21 11:06:48;;;;;;;8.40;6.07;;;;;;;16.86;43.93;99558.45;147784;1147;104532;-74
2021/04/21 11:09:57;;;;;;;10.63;6.40;;;;;;;16.98;45.09;99570.23;147764;1147;104566;-74
2021/04/21 11:13:00;;;;;;;9.10;5.80;;;;;;;16.87;45.23;99569.00;147758;1147;104489;-74
2021/04/21 11:16:06;;;;;;;9.10;5.20;;;;;;;16.81;45.18;99555.53;147773;1147;104600;-74
2021/04/21 11:19:32;;;;;;;8.18;4.80;;;;;;;16.71;45.43;99563.23;147736;1147;104644;-74
2021/04/21 11:22:42;;;;;;;7.28;4.92;;;;;;;16.76;44.09;99556.14;147709;1147;104444;-73
2021/04/21 11:25:45;;;;;;;8.55;4.92;;;;;;;16.98;44.92;99555.94;147552;1147;104471;-73
2021/04/21 11:28:59;;;;;;;6.95;5.28;;;;;;;17.13;43.15;99550.27;147728;1147;104467;-73
2021/04/21 11:32:17;;;;;;;9.13;5.00;;;;;;;17.09;41.86;99544.50;147710;1148;104716;-75
2021/04/21 11:35:29;;;;;;;8.93;5.20;;;;;;;17.05;43.27;99554.88;147754;1147;104569;-73
2021/04/21 11:38:44;;;;;;;7.87;5.80;;;;;;;17.21;43.71;99548.17;147678;1147;104574;-74
2021/04/21 11:41:48;;;;;;;8.93;5.10;;;;;;;17.31;43.83;99542.32;147746;1147;104467;-75
2021/04/21 11:45:00;;;;;;;9.73;5.37;;;;;;;17.34;42.68;99544.59;147660;1146;104476;-74
2021/04/21 11:48:20;;;;;;;9.40;5.57;;;;;;;17.27;42.71;99544.61;147820;1147;104559;-73
2021/04/21 11:51:23;;;;;;;6.72;5.28;;;;;;;17.22;40.91;99541.72;147623;1147;104678;-75
2021/04/21 11:54:27;;;;;;;7.42;4.83;;;;;;;17.22;40.81;99540.91;147760;1147;104476;-73
2021/04/21 11:57:30;;;;;;;6.78;4.42;;;;;;;17.25;42.36;99549.39;147797;1147;104892;-74
2021/04/21 12:00:37;;;;;;;8.18;4.70;;;;;;;17.40;40.75;99534.82;147621;1147;104444;-73
2021/04/21 12:03:43;;;;;;;6.28;4.95;;;;;;;17.41;41.07;99542.67;147674;1147;104496;-74
2021/04/21 12:06:47;;;;;;;10.58;5.30;;;;;;;17.43;39.45;99539.77;147681;1147;104510;-74
2021/04/21 12:09:51;;;;;;;6.47;4.80;;;;;;;17.39;41.16;99530.45;147599;1147;104558;-74
2021/04/21 12:12:54;;;;;;;8.55;5.03;;;;;;;17.42;41.76;99535.44;147779;1147;104479;-74
2021/04/21 12:16:09;;;;;;;6.58;5.22;;;;;;;17.37;40.92;99535.24;147733;1147;104608;-74
2021/04/21 12:19:12;;;;;;;12.33;5.70;;;;;;;17.23;40.81;99540.69;147804;1147;104446;-73
2021/04/21 12:22:15;;;;;;;8.90;5.30;;;;;;;17.33;41.91;99534.02;147710;1147;104565;-74
2021/04/21 12:25:23;;;;;;;9.98;6.03;;;;;;;17.43;41.22;99531.67;147826;1147;104674;-73
2021/04/21 12:28:26;;;;;;;7.67;5.40;;;;;;;17.49;41.24;99521.89;147703;1147;104566;-75
2021/04/21 12:31:32;;;;;;;7.62;5.95;;;;;;;17.52;40.00;99524.17;147699;1147;104565;-73
2021/04/21 12:34:35;;;;;;;14.33;5.90;;;;;;;17.50;39.34;99507.38;147764;1147;104477;-74
2021/04/21 12:37:39;;;;;;;11.90;5.85;;;;;;;17.48;39.44;99525.66;147693;1147;104608;-73
2021/04/21 12:40:42;;;;;;;8.18;5.92;;;;;;;17.44;39.34;99517.16;147700;1147;104560;-74
2021/04/21 12:43:46;;;;;;;7.22;4.92;;;;;;;17.37;35.08;99511.79;147504;1147;104543;-74
2021/04/21 12:46:51;;;;;;;6.30;4.75;;;;;;;17.17;34.93;99516.47;147477;1148;104559;-74
2021/04/21 12:49:54;;;;;;;6.37;4.67;;;;;;;17.18;39.29;99512.72;147771;1147;104607;-75
2021/04/21 12:53:12;;;;;;;7.17;5.00;;;;;;;17.21;39.02;99515.00;147729;1147;104532;-73
2021/04/21 12:56:16;;;;;;;6.57;5.27;;;;;;;17.25;39.20;99511.65;147780;1147;104453;-74
2021/04/21 12:59:20;;;;;;;10.30;6.28;;;;;;;17.37;39.28;99497.48;147621;1147;104560;-74
2021/04/21 13:02:44;;;;;;;8.60;6.12;;;;;;;17.42;38.01;99492.28;147522;1145;104575;-75
2021/04/21 13:05:50;;;;;;;9.35;5.78;;;;;;;17.50;37.98;99500.11;147712;1148;104444;-73
2021/04/21 13:09:02;;;;;;;60.30;45.23;;;;;;;17.47;37.95;99495.14;147736;1147;104478;-72
2021/04/21 13:12:07;;;;;;;19.43;15.10;;;;;;;17.48;38.90;99498.69;147762;1147;104495;-71
2021/04/21 13:15:12;;;;;;;13.88;11.95;;;;;;;17.52;39.13;99495.33;147228;1147;104688;-74
2021/04/21 13:18:16;;;;;;;23.95;19.45;;;;;;;17.44;38.76;99499.10;147161;1147;104568;-74
2021/04/21 13:21:19;;;;;;;23.40;17.42;;;;;;;17.31;38.96;99503.75;147540;1147;104566;-74
2021/04/21 13:24:22;;;;;;;70.60;39.83;;;;;;;17.19;39.28;99509.81;147295;1147;104617;-73
2021/04/21 13:27:27;;;;;;;15.32;12.13;;;;;;;17.08;39.37;99499.70;147385;1147;104474;-74
2021/04/21 13:30:30;;;;;;;13.45;10.78;;;;;;;16.87;39.00;99493.55;147696;1147;104481;-74
2021/04/21 13:33:34;;;;;;;11.17;8.47;;;;;;;16.63;36.91;99497.76;147571;1147;104582;-72
2021/04/21 13:36:37;;;;;;;37.78;22.65;;;;;;;16.49;38.03;99507.73;147530;1147;104521;-76
2021/04/21 13:39:41;;;;;;;14.20;9.43;;;;;;;16.40;37.99;99500.91;147747;1147;104605;-75
2021/04/21 13:42:47;;;;;;;29.45;17.57;;;;;;;16.45;38.59;99500.27;147748;1147;104611;-72
2021/04/21 13:45:50;;;;;;;11.53;8.10;;;;;;;16.56;36.32;99501.50;147615;1147;104550;-73
2021/04/21 13:48:53;;;;;;;10.08;7.03;;;;;;;16.56;36.69;99490.73;147764;1147;104444;-74
2021/04/21 13:51:59;;;;;;;15.78;9.48;;;;;;;16.49;36.25;99502.35;147628;1148;104551;-74
2021/04/21 13:55:03;;;;;;;89.37;66.20;;;;;;;16.54;35.64;99498.20;147554;1148;104569;-74
2021/04/21 13:58:06;;;;;;;150.12;75.87;;;;;;;16.59;36.71;99488.45;147779;1147;104501;-73
2021/04/21 14:01:10;;;;;;;26.45;14.85;;;;;;;16.60;34.71;99491.96;147821;1147;104461;-73
2021/04/21 14:04:13;;;;;;;11.00;7.33;;;;;;;16.55;35.85;99480.98;147631;1147;104444;-74
2021/04/21 14:07:16;;;;;;;9.58;6.67;;;;;;;16.52;35.91;99489.50;147773;1147;104610;-74
2021/04/21 14:10:19;;;;;;;8.73;6.53;;;;;;;16.48;35.92;99492.60;147740;1147;104566;-74
2021/04/21 14:13:23;;;;;;;11.85;6.00;;;;;;;16.44;34.59;99496.76;147806;1147;104529;-74
2021/04/21 14:16:26;;;;;;;22.23;14.63;;;;;;;16.40;34.80;99506.30;147755;1147;104444;-77
2021/04/21 14:19:29;;;;;;;17.20;12.50;;;;;;;16.38;35.35;99508.38;147696;1147;104569;-74